Time;durP1;ratioP1;P1;durP2;ratioP2;P2;SDS_P1;SDS_P2;PMS_P1;PMS_P2;Temp;Humidity;BMP_temperature;BMP_pressure;BME280_temperature;BME280_humidity;BME280_pressure;Samples;Min_cycle;Max_cycle;Signal;HPM_P1;HPM_P2
2023/06/13 00:00:44;;;;;;;;;3.33;3.33;;;;;;;;119401;1194;25113;-60
2023/06/13 00:03:33;;;;;;;;;7.00;4.00;;;;;;;;119432;1194;25210;-60
2023/06/13 00:06:02;;;;;;;;;6.33;4.00;;;;;;;;119400;1194;24880;-60
2023/06/13 00:08:34;;;;;;;;;4.67;3.00;;;;;;;;119384;1194;25460;-60
2023/06/13 00:11:03;;;;;;;;;4.00;4.00;;;;;;;;119376;1194;25447;-60
2023/06/13 00:13:32;;;;;;;;;4.00;4.00;;;;;;;;119382;1194;25044;-60
2023/06/13 00:16:01;;;;;;;;;5.00;4.00;;;;;;;;119400;1185;25538;-60
2023/06/13 00:18:30;;;;;;;;;2.00;2.00;;;;;;;;119418;1194;25747;-60
2023/06/13 00:20:59;;;;;;;;;5.00;4.00;;;;;;;;119399;1194;25263;-60
2023/06/13 00:23:28;;;;;;;;;3.00;3.00;;;;;;;;119365;1194;25072;-60
2023/06/13 00:25:56;;;;;;;;;3.00;3.00;;;;;;;;119396;1194;25025;-60
2023/06/13 00:28:25;;;;;;;;;4.00;4.00;;;;;;;;119404;1185;24864;-60
2023/06/13 00:30:53;;;;;;;;;5.00;4.00;;;;;;;;119407;1194;25179;-60
2023/06/13 00:33:21;;;;;;;;;7.00;5.00;;;;;;;;119403;1194;25467;-60
2023/06/13 00:35:50;;;;;;;;;3.25;3.25;;;;;;;;119349;1185;25179;-60
2023/06/13 00:38:23;;;;;;;;;4.00;4.00;;;;;;;;119418;1194;24875;-60
2023/06/13 00:40:51;;;;;;;;;5.50;4.00;;;;;;;;119392;1194;25723;-60
2023/06/13 00:43:19;;;;;;;;;2.00;2.00;;;;;;;;119363;1194;25471;-60
2023/06/13 00:45:48;;;;;;;;;7.00;4.00;;;;;;;;119415;1185;25445;-61
2023/06/13 00:48:16;;;;;;;;;4.00;4.00;;;;;;;;119434;1194;24813;-61
2023/06/13 00:50:46;;;;;;;;;3.00;3.00;;;;;;;;119386;1194;25631;-61
2023/06/13 00:53:19;;;;;;;;;3.00;3.00;;;;;;;;119421;1194;25227;-60
2023/06/13 00:55:49;;;;;;;;;4.33;4.00;;;;;;;;119337;1194;24796;-60
2023/06/13 00:58:18;;;;;;;;;4.00;4.00;;;;;;;;119406;1185;25398;-61
2023/06/13 01:00:48;;;;;;;;;4.00;4.00;;;;;;;;119395;1186;25174;-61
2023/06/13 01:03:17;;;;;;;;;3.50;3.00;;;;;;;;119379;1194;24796;-61
2023/06/13 01:05:47;;;;;;;;;3.00;3.00;;;;;;;;119431;1187;25249;-60
2023/06/13 01:08:19;;;;;;;;;4.00;2.00;;;;;;;;119396;1194;25746;-59
2023/06/13 01:10:59;;;;;;;;;3.50;3.50;;;;;;;;119361;1194;25341;-59
2023/06/13 01:13:41;;;;;;;;;3.00;3.00;;;;;;;;119416;1186;25666;-59
2023/06/13 01:16:15;;;;;;;;;3.00;3.00;;;;;;;;119407;1194;24840;-60
2023/06/13 01:18:44;;;;;;;;;3.00;3.00;;;;;;;;119426;1194;25639;-60
2023/06/13 01:21:13;;;;;;;;;4.00;4.00;;;;;;;;119396;1187;25499;-60
2023/06/13 01:23:57;;;;;;;;;6.00;4.00;;;;;;;;119385;1194;24914;-60
2023/06/13 01:26:45;;;;;;;;;4.00;4.00;;;;;;;;119418;1185;25640;-60
2023/06/13 01:29:18;;;;;;;;;6.00;3.00;;;;;;;;119418;1194;25704;-60
2023/06/13 01:31:50;;;;;;;;;4.00;2.00;;;;;;;;119408;1194;25474;-60
2023/06/13 01:34:19;;;;;;;;;4.00;2.00;;;;;;;;119393;1194;25002;-60
2023/06/13 01:36:47;;;;;;;;;9.00;7.33;;;;;;;;119400;1194;24960;-60
2023/06/13 01:39:16;;;;;;;;;7.00;7.00;;;;;;;;119431;1185;25143;-60
2023/06/13 01:41:44;;;;;;;;;10.33;8.00;;;;;;;;119390;1194;25690;-60
2023/06/13 01:44:18;;;;;;;;;8.00;7.75;;;;;;;;119400;1194;25104;-60
2023/06/13 01:47:01;;;;;;;;;8.33;6.67;;;;;;;;119424;1194;24889;-60
2023/06/13 01:49:47;;;;;;;;;8.00;8.00;;;;;;;;119424;1194;24814;-60
2023/06/13 01:52:26;;;;;;;;;3.33;3.33;;;;;;;;119422;1185;25118;-60
2023/06/13 01:55:00;;;;;;;;;5.50;5.50;;;;;;;;119421;1185;25440;-60
2023/06/13 01:57:36;;;;;;;;;7.00;5.00;;;;;;;;119413;1194;25336;-60
2023/06/13 02:00:09;;;;;;;;;6.00;5.50;;;;;;;;119419;1185;25045;-60
2023/06/13 02:02:38;;;;;;;;;6.25;5.00;;;;;;;;119392;1194;25543;-60
2023/06/13 02:05:08;;;;;;;;;5.00;5.00;;;;;;;;119427;1185;25533;-60
2023/06/13 02:07:36;;;;;;;;;5.00;5.00;;;;;;;;119405;1194;25415;-60
2023/06/13 02:10:05;;;;;;;;;3.50;3.00;;;;;;;;119405;1194;24995;-60
2023/06/13 02:12:34;;;;;;;;;3.00;3.00;;;;;;;;119390;1186;25144;-59
2023/06/13 02:15:03;;;;;;;;;7.00;5.00;;;;;;;;119409;1194;25584;-60
2023/06/13 02:17:33;;;;;;;;;4.00;4.00;;;;;;;;119420;1194;25296;-60
2023/06/13 02:20:01;;;;;;;;;7.00;5.00;;;;;;;;119403;1194;25250;-59
2023/06/13 02:22:29;;;;;;;;;4.00;3.33;;;;;;;;119410;1194;24995;-59
2023/06/13 02:24:59;;;;;;;;;4.00;2.00;;;;;;;;119410;1193;25517;-59
2023/06/13 02:27:27;;;;;;;;;4.75;4.75;;;;;;;;119432;1194;25164;-59
2023/06/13 02:29:56;;;;;;;;;4.67;4.00;;;;;;;;119405;1194;25759;-60
2023/06/13 02:32:29;;;;;;;;;3.33;3.33;;;;;;;;119450;1194;24845;-61
2023/06/13 02:34:57;;;;;;;;;6.50;5.50;;;;;;;;119401;1194;25019;-60
2023/06/13 02:37:25;;;;;;;;;4.33;4.00;;;;;;;;119405;1194;24998;-60
2023/06/13 02:39:54;;;;;;;;;4.00;4.00;;;;;;;;119411;1186;24880;-60
2023/06/13 02:42:22;;;;;;;;;6.67;2.67;;;;;;;;119406;1194;25407;-60
2023/06/13 02:44:50;;;;;;;;;5.00;4.00;;;;;;;;119426;1194;25430;-60
2023/06/13 02:47:21;;;;;;;;;3.50;3.50;;;;;;;;119444;1194;25410;-59
2023/06/13 02:49:49;;;;;;;;;3.33;3.33;;;;;;;;119410;1194;25455;-60
2023/06/13 02:52:21;;;;;;;;;2.00;2.00;;;;;;;;119432;1186;25895;-60
2023/06/13 02:54:50;;;;;;;;;3.50;3.00;;;;;;;;119412;1194;24810;-60
2023/06/13 02:57:18;;;;;;;;;6.00;3.00;;;;;;;;119381;1193;26205;-60
2023/06/13 02:59:47;;;;;;;;;4.00;4.00;;;;;;;;119424;1194;25626;-59
2023/06/13 03:02:25;;;;;;;;;5.00;5.00;;;;;;;;119419;1194;24880;-59
2023/06/13 03:04:54;;;;;;;;;4.00;4.00;;;;;;;;119405;1185;25024;-59
2023/06/13 03:07:23;;;;;;;;;3.75;3.00;;;;;;;;119395;1190;25108;-60
2023/06/13 03:09:52;;;;;;;;;3.50;3.50;;;;;;;;119385;1194;25532;-60
2023/06/13 03:12:20;;;;;;;;;5.75;3.00;;;;;;;;119415;1194;25312;-59
2023/06/13 03:14:48;;;;;;;;;3.00;3.00;;;;;;;;119373;1190;25088;-60
2023/06/13 03:17:17;;;;;;;;;5.00;5.00;;;;;;;;119398;1194;25036;-58
2023/06/13 03:19:46;;;;;;;;;6.00;3.75;;;;;;;;119416;1185;25494;-59
2023/06/13 03:22:14;;;;;;;;;2.00;2.00;;;;;;;;119403;1185;25891;-60
2023/06/13 03:24:44;;;;;;;;;4.00;4.00;;;;;;;;119410;1194;25211;-60
2023/06/13 03:27:13;;;;;;;;;4.00;3.00;;;;;;;;119380;1194;25516;-59
2023/06/13 03:29:42;;;;;;;;;4.00;4.00;;;;;;;;119413;1182;24876;-60
2023/06/13 03:32:11;;;;;;;;;1.00;1.00;;;;;;;;119411;1194;25376;-60
2023/06/13 03:34:40;;;;;;;;;5.75;3.75;;;;;;;;119397;1185;25137;-61
2023/06/13 03:37:09;;;;;;;;;2.25;2.25;;;;;;;;119390;1194;24864;-60
2023/06/13 03:39:37;;;;;;;;;3.50;3.50;;;;;;;;119385;1194;25501;-60
2023/06/13 03:42:06;;;;;;;;;1.00;1.00;;;;;;;;119410;1194;24921;-60
2023/06/13 03:44:35;;;;;;;;;4.00;3.00;;;;;;;;119404;1194;25632;-61
2023/06/13 03:47:04;;;;;;;;;4.00;4.00;;;;;;;;119408;1194;24863;-60
2023/06/13 03:49:32;;;;;;;;;3.00;3.00;;;;;;;;119433;1185;25023;-60
2023/06/13 03:52:00;;;;;;;;;4.33;2.33;;;;;;;;119435;1194;24903;-61
2023/06/13 03:54:29;;;;;;;;;3.33;3.00;;;;;;;;119411;1194;24777;-62
2023/06/13 03:56:57;;;;;;;;;4.67;3.00;;;;;;;;119378;1194;25145;-60
2023/06/13 03:59:26;;;;;;;;;5.00;5.00;;;;;;;;119389;1194;25273;-60
2023/06/13 04:01:54;;;;;;;;;4.00;2.00;;;;;;;;119416;1193;25037;-59
2023/06/13 04:04:22;;;;;;;;;3.33;3.00;;;;;;;;119408;1193;24707;-60
2023/06/13 04:06:51;;;;;;;;;7.00;5.00;;;;;;;;119400;1190;25654;-60
2023/06/13 04:09:19;;;;;;;;;2.50;2.00;;;;;;;;119435;1186;24762;-61
2023/06/13 04:11:48;;;;;;;;;2.00;2.00;;;;;;;;119426;1194;25291;-59
2023/06/13 04:14:16;;;;;;;;;3.33;3.33;;;;;;;;119404;1194;24957;-59
2023/06/13 04:16:44;;;;;;;;;5.75;5.75;;;;;;;;119417;1194;25442;-60
2023/06/13 04:19:18;;;;;;;;;3.00;3.00;;;;;;;;119443;1194;25341;-59
2023/06/13 04:21:47;;;;;;;;;6.67;4.00;;;;;;;;119401;1194;25328;-59
2023/06/13 04:24:16;;;;;;;;;4.00;4.00;;;;;;;;119437;1194;25081;-59
2023/06/13 04:26:47;;;;;;;;;1.75;1.75;;;;;;;;119382;1194;25605;-60
2023/06/13 04:29:17;;;;;;;;;3.00;3.00;;;;;;;;119404;1194;25364;-60
2023/06/13 04:31:46;;;;;;;;;1.00;1.00;;;;;;;;119433;1186;25789;-60
2023/06/13 04:34:14;;;;;;;;;2.00;2.00;;;;;;;;119398;1194;25127;-60
2023/06/13 04:36:44;;;;;;;;;4.00;3.50;;;;;;;;119422;1186;25043;-60
2023/06/13 04:39:12;;;;;;;;;4.00;4.00;;;;;;;;119401;1186;24788;-60
2023/06/13 04:41:43;;;;;;;;;6.50;5.00;;;;;;;;119413;1194;25069;-60
2023/06/13 04:44:13;;;;;;;;;4.33;4.00;;;;;;;;119408;1194;25251;-60
2023/06/13 04:46:41;;;;;;;;;1.75;1.25;;;;;;;;119422;1186;25149;-58
2023/06/13 04:49:10;;;;;;;;;3.00;3.00;;;;;;;;119378;1194;24998;-57
2023/06/13 04:51:40;;;;;;;;;3.00;3.00;;;;;;;;119432;1186;25620;-59
2023/06/13 04:54:09;;;;;;;;;3.00;2.00;;;;;;;;119362;1193;25472;-58
2023/06/13 04:56:38;;;;;;;;;3.67;3.67;;;;;;;;119429;1194;25394;-59
2023/06/13 04:59:08;;;;;;;;;7.00;5.00;;;;;;;;119406;1194;26076;-59
2023/06/13 05:01:37;;;;;;;;;5.67;5.67;;;;;;;;119414;1193;25092;-59
2023/06/13 05:04:06;;;;;;;;;4.00;4.00;;;;;;;;119406;1194;25545;-59
2023/06/13 05:06:37;;;;;;;;;7.00;3.00;;;;;;;;119429;1194;25108;-59
2023/06/13 05:09:08;;;;;;;;;4.50;3.00;;;;;;;;119381;1185;24790;-59
2023/06/13 05:11:36;;;;;;;;;3.00;3.00;;;;;;;;119393;1186;25049;-59
2023/06/13 05:14:05;;;;;;;;;2.00;2.00;;;;;;;;119439;1194;25155;-59
2023/06/13 05:16:34;;;;;;;;;4.00;4.00;;;;;;;;119425;1185;25423;-59
2023/06/13 05:19:05;;;;;;;;;3.00;2.50;;;;;;;;119431;1180;24919;-60
2023/06/13 05:21:33;;;;;;;;;3.50;3.50;;;;;;;;119403;1185;25079;-59
2023/06/13 05:24:02;;;;;;;;;5.00;4.00;;;;;;;;119413;1194;25525;-59
2023/06/13 05:26:30;;;;;;;;;4.00;3.67;;;;;;;;119369;1194;24918;-60
2023/06/13 05:28:59;;;;;;;;;3.50;3.50;;;;;;;;119393;1194;25658;-59
2023/06/13 05:31:27;;;;;;;;;3.00;3.00;;;;;;;;119410;1185;25592;-60
2023/06/13 05:33:56;;;;;;;;;3.00;3.00;;;;;;;;119435;1194;25985;-59
2023/06/13 05:36:25;;;;;;;;;3.00;2.00;;;;;;;;119381;1194;25703;-59
2023/06/13 05:38:57;;;;;;;;;4.00;4.00;;;;;;;;119422;1186;24966;-59
2023/06/13 05:41:25;;;;;;;;;4.00;4.00;;;;;;;;119390;1182;25265;-59
2023/06/13 05:43:54;;;;;;;;;4.00;3.00;;;;;;;;119410;1194;25700;-59
2023/06/13 05:46:22;;;;;;;;;3.25;2.00;;;;;;;;119413;1194;25144;-59
2023/06/13 05:48:50;;;;;;;;;3.67;3.00;;;;;;;;119427;1185;25054;-59
2023/06/13 05:51:19;;;;;;;;;3.75;3.00;;;;;;;;119403;1194;25293;-59
2023/06/13 05:53:47;;;;;;;;;4.00;3.00;;;;;;;;119425;1194;25610;-59
2023/06/13 05:56:15;;;;;;;;;3.00;3.00;;;;;;;;119424;1185;25074;-60
2023/06/13 05:58:44;;;;;;;;;4.00;3.33;;;;;;;;119416;1194;24868;-59
2023/06/13 06:01:12;;;;;;;;;4.00;2.00;;;;;;;;119412;1186;24808;-59
2023/06/13 06:03:41;;;;;;;;;2.00;2.00;;;;;;;;119400;1194;25859;-59
2023/06/13 06:06:09;;;;;;;;;3.00;3.00;;;;;;;;119411;1185;25203;-59
2023/06/13 06:08:37;;;;;;;;;2.33;2.33;;;;;;;;119425;1194;25308;-59
2023/06/13 06:11:06;;;;;;;;;5.00;4.00;;;;;;;;119444;1194;24992;-59
2023/06/13 06:13:34;;;;;;;;;1.00;1.00;;;;;;;;119414;1194;24749;-60
2023/06/13 06:16:03;;;;;;;;;3.00;3.00;;;;;;;;119387;1194;25256;-60
2023/06/13 06:18:31;;;;;;;;;3.50;3.50;;;;;;;;119428;1186;25306;-60
2023/06/13 06:21:02;;;;;;;;;5.67;3.00;;;;;;;;119418;1194;26136;-59
2023/06/13 06:23:30;;;;;;;;;5.00;5.00;;;;;;;;119450;1186;24931;-59
2023/06/13 06:25:59;;;;;;;;;5.00;3.00;;;;;;;;119404;1194;24744;-59
2023/06/13 06:28:27;;;;;;;;;2.33;2.33;;;;;;;;119430;1194;25487;-59
2023/06/13 06:30:55;;;;;;;;;2.00;2.00;;;;;;;;119392;1186;24917;-60
2023/06/13 06:33:24;;;;;;;;;2.67;2.67;;;;;;;;119405;1193;25412;-59
2023/06/13 06:35:53;;;;;;;;;2.00;2.00;;;;;;;;119433;1186;25437;-60
2023/06/13 06:38:21;;;;;;;;;3.33;2.33;;;;;;;;119434;1194;25563;-59
2023/06/13 06:40:49;;;;;;;;;3.00;3.00;;;;;;;;119384;1193;24690;-60
2023/06/13 06:43:18;;;;;;;;;2.50;2.50;;;;;;;;119423;1194;24897;-59
2023/06/13 06:45:46;;;;;;;;;5.50;5.50;;;;;;;;119403;1194;24868;-60
2023/06/13 06:48:14;;;;;;;;;2.75;2.75;;;;;;;;119427;1186;25693;-63
2023/06/13 06:50:43;;;;;;;;;3.00;3.00;;;;;;;;119417;1193;25723;-60
2023/06/13 06:53:11;;;;;;;;;4.00;4.00;;;;;;;;119433;1194;24725;-59
2023/06/13 06:55:39;;;;;;;;;3.00;3.00;;;;;;;;119400;1194;25665;-59
2023/06/13 06:58:08;;;;;;;;;4.00;2.00;;;;;;;;119387;1190;25484;-58
2023/06/13 07:00:36;;;;;;;;;2.00;2.00;;;;;;;;119418;1194;24728;-59
2023/06/13 07:03:07;;;;;;;;;3.00;3.00;;;;;;;;119436;1186;24869;-57
2023/06/13 07:05:36;;;;;;;;;2.00;2.00;;;;;;;;119417;1193;25474;-60
2023/06/13 07:08:04;;;;;;;;;5.00;3.00;;;;;;;;119400;1194;25288;-57
2023/06/13 07:10:33;;;;;;;;;2.00;2.00;;;;;;;;119408;1180;25078;-57
2023/06/13 07:13:02;;;;;;;;;3.00;3.00;;;;;;;;119417;1194;24769;-60
2023/06/13 07:15:30;;;;;;;;;2.00;2.00;;;;;;;;119441;1194;24980;-57
2023/06/13 07:17:58;;;;;;;;;5.33;4.33;;;;;;;;119414;1194;25799;-57
2023/06/13 07:20:27;;;;;;;;;5.33;4.00;;;;;;;;119428;1193;25378;-57
2023/06/13 07:22:55;;;;;;;;;2.00;2.00;;;;;;;;119416;1190;25403;-57
2023/06/13 07:25:23;;;;;;;;;2.00;2.00;;;;;;;;119387;1194;25855;-58
2023/06/13 07:27:52;;;;;;;;;3.00;2.50;;;;;;;;119428;1186;25169;-63
2023/06/13 07:30:20;;;;;;;;;6.33;3.67;;;;;;;;119430;1190;24707;-58
2023/06/13 07:32:48;;;;;;;;;3.00;2.00;;;;;;;;119426;1194;24741;-60
2023/06/13 07:35:23;;;;;;;;;3.00;3.00;;;;;;;;119422;1190;25682;-60
2023/06/13 07:37:54;;;;;;;;;1.50;1.50;;;;;;;;119438;1185;25228;-58
2023/06/13 07:40:24;;;;;;;;;2.50;2.50;;;;;;;;119422;1186;25747;-61
2023/06/13 07:42:52;;;;;;;;;4.00;3.00;;;;;;;;119422;1180;25150;-60
2023/06/13 07:45:20;;;;;;;;;2.00;2.00;;;;;;;;119389;1185;25523;-60
2023/06/13 07:47:52;;;;;;;;;8.00;3.00;;;;;;;;119393;1186;25469;-60
2023/06/13 07:50:20;;;;;;;;;2.50;2.50;;;;;;;;119434;1194;25079;-59
2023/06/13 07:52:49;;;;;;;;;3.00;3.00;;;;;;;;119401;1194;25486;-60
2023/06/13 07:55:17;;;;;;;;;3.00;3.00;;;;;;;;119411;1194;25804;-59
2023/06/13 07:57:46;;;;;;;;;3.00;2.00;;;;;;;;119441;1194;25456;-59
2023/06/13 08:00:28;;;;;;;;;4.67;2.33;;;;;;;;119421;1194;25541;-60
2023/06/13 08:02:57;;;;;;;;;3.00;1.00;;;;;;;;119417;1193;25660;-59
2023/06/13 08:05:26;;;;;;;;;4.00;3.00;;;;;;;;119505;1186;25025;-59
2023/06/13 08:07:56;;;;;;;;;1.75;1.75;;;;;;;;119421;1194;24818;-61
2023/06/13 08:10:27;;;;;;;;;1.00;1.00;;;;;;;;119394;1194;24935;-60
2023/06/13 08:12:57;;;;;;;;;2.00;2.00;;;;;;;;119423;1190;25609;-61
2023/06/13 08:15:25;;;;;;;;;5.00;2.00;;;;;;;;119454;1190;25053;-61
2023/06/13 08:17:54;;;;;;;;;5.00;3.67;;;;;;;;119431;1191;25395;-61
2023/06/13 08:20:23;;;;;;;;;6.50;4.00;;;;;;;;119424;1194;25138;-61
2023/06/13 08:22:51;;;;;;;;;4.00;3.00;;;;;;;;119435;1194;25047;-61
2023/06/13 08:25:20;;;;;;;;;3.00;3.00;;;;;;;;119519;1185;25350;-61
2023/06/13 08:27:49;;;;;;;;;3.00;2.00;;;;;;;;119480;1189;25679;-61
2023/06/13 08:30:18;;;;;;;;;3.00;3.00;;;;;;;;119462;1189;24975;-61
2023/06/13 08:32:47;;;;;;;;;4.50;3.00;;;;;;;;119419;1194;25137;-61
2023/06/13 08:35:16;;;;;;;;;3.50;3.50;;;;;;;;119447;1190;25482;-61
2023/06/13 08:37:45;;;;;;;;;3.00;3.00;;;;;;;;119505;1186;25625;-61
2023/06/13 08:40:15;;;;;;;;;3.67;3.33;;;;;;;;119513;1189;25653;-61
2023/06/13 08:42:44;;;;;;;;;4.50;3.50;;;;;;;;119414;1185;25567;-60
2023/06/13 08:45:13;;;;;;;;;3.00;3.00;;;;;;;;119413;1194;25308;-61
2023/06/13 08:47:46;;;;;;;;;3.00;3.00;;;;;;;;119500;1185;24903;-60
2023/06/13 08:50:23;;;;;;;;;4.50;3.00;;;;;;;;119410;1194;24947;-61
2023/06/13 08:52:54;;;;;;;;;4.25;2.00;;;;;;;;119501;1189;25013;-61
2023/06/13 08:55:24;;;;;;;;;5.00;2.00;;;;;;;;119539;1181;25270;-61
2023/06/13 08:58:13;;;;;;;;;4.00;4.00;;;;;;;;119410;1191;25293;-61
2023/06/13 09:00:44;;;;;;;;;5.00;3.00;;;;;;;;119409;1194;25565;-60
2023/06/13 09:03:12;;;;;;;;;3.33;3.00;;;;;;;;119438;1185;25459;-60
2023/06/13 09:05:41;;;;;;;;;3.00;3.00;;;;;;;;119510;1182;26173;-61
2023/06/13 09:08:11;;;;;;;;;4.50;3.50;;;;;;;;119475;1182;25642;-61
2023/06/13 09:11:00;;;;;;;;;2.50;2.50;;;;;;;;119435;1194;25446;-60
2023/06/13 09:13:29;;;;;;;;;2.00;2.00;;;;;;;;119387;1194;24973;-61
2023/06/13 09:15:58;;;;;;;;;3.00;3.00;;;;;;;;119415;1190;25577;-60
2023/06/13 09:18:26;;;;;;;;;3.00;3.00;;;;;;;;119405;1194;25453;-60
2023/06/13 09:20:55;;;;;;;;;2.50;2.00;;;;;;;;119517;1190;25310;-60
2023/06/13 09:23:23;;;;;;;;;4.00;2.00;;;;;;;;119483;1190;25436;-60
2023/06/13 09:25:52;;;;;;;;;2.00;2.00;;;;;;;;119510;1189;25404;-60
2023/06/13 09:28:39;;;;;;;;;2.50;2.50;;;;;;;;119446;1190;25175;-60
2023/06/13 09:31:08;;;;;;;;;2.00;2.00;;;;;;;;119458;1185;25575;-60
2023/06/13 09:33:38;;;;;;;;;3.00;3.00;;;;;;;;119469;1182;24898;-60
2023/06/13 09:36:07;;;;;;;;;3.00;3.00;;;;;;;;119413;1194;25442;-60
2023/06/13 09:38:40;;;;;;;;;5.00;2.00;;;;;;;;119403;1186;25192;-60
2023/06/13 09:41:13;;;;;;;;;3.00;2.00;;;;;;;;119421;1190;25058;-61
2023/06/13 09:43:42;;;;;;;;;3.00;3.00;;;;;;;;119399;1194;25141;-61
2023/06/13 09:46:10;;;;;;;;;4.00;3.00;;;;;;;;119461;1190;25553;-61
2023/06/13 09:48:44;;;;;;;;;2.00;2.00;;;;;;;;119400;1186;25588;-60
2023/06/13 09:51:12;;;;;;;;;3.00;3.00;;;;;;;;119512;1189;24851;-62
2023/06/13 09:53:45;;;;;;;;;3.50;3.50;;;;;;;;119412;1186;24723;-63
2023/06/13 09:56:13;;;;;;;;;2.67;2.33;;;;;;;;119403;1194;24726;-61
2023/06/13 09:58:41;;;;;;;;;2.50;2.50;;;;;;;;119390;1194;24898;-60
2023/06/13 10:01:15;;;;;;;;;3.33;2.00;;;;;;;;119486;1189;25089;-61
2023/06/13 10:03:44;;;;;;;;;3.00;3.00;;;;;;;;119388;1194;25455;-60
2023/06/13 10:06:13;;;;;;;;;4.00;2.50;;;;;;;;119409;1194;25782;-61
2023/06/13 10:08:42;;;;;;;;;2.67;2.67;;;;;;;;119458;1189;25301;-61
2023/06/13 10:11:15;;;;;;;;;3.00;2.00;;;;;;;;119418;1189;25670;-61
2023/06/13 10:13:54;;;;;;;;;2.00;2.00;;;;;;;;119358;1193;25229;-61
2023/06/13 10:16:24;;;;;;;;;4.67;3.67;;;;;;;;119390;1194;25094;-61
2023/06/13 10:18:54;;;;;;;;;3.00;3.00;;;;;;;;119418;1190;24938;-61
2023/06/13 10:21:22;;;;;;;;;3.50;3.50;;;;;;;;119389;1194;25003;-60
2023/06/13 10:23:53;;;;;;;;;2.00;2.00;;;;;;;;119423;1184;24996;-61
2023/06/13 10:26:43;;;;;;;;;2.00;2.00;;;;;;;;119419;1194;25249;-60
2023/06/13 10:29:29;;;;;;;;;2.50;2.00;;;;;;;;119402;1194;25423;-61
2023/06/13 10:32:21;;;;;;;;;8.00;5.00;;;;;;;;119399;1193;24999;-60
2023/06/13 10:35:08;;;;;;;;;3.00;2.00;;;;;;;;119415;1186;25244;-61
2023/06/13 10:46:33;;;;;;;;;3.67;3.67;;;;;;;;119385;1193;25654;-60
2023/06/13 10:49:02;;;;;;;;;3.67;3.33;;;;;;;;119416;1194;25619;-61
2023/06/13 10:52:10;;;;;;;;;4.50;4.00;;;;;;;;119389;1194;25630;-60
2023/06/13 10:55:13;;;;;;;;;7.50;4.50;;;;;;;;119415;1186;24730;-61
2023/06/13 10:57:52;;;;;;;;;5.00;5.00;;;;;;;;119408;1194;25265;-61
2023/06/13 11:00:30;;;;;;;;;2.33;2.33;;;;;;;;119386;1194;25173;-61
2023/06/13 11:03:06;;;;;;;;;3.00;3.00;;;;;;;;119410;1194;25272;-61
2023/06/13 11:05:44;;;;;;;;;3.00;3.00;;;;;;;;119437;1186;25389;-61
2023/06/13 11:08:23;;;;;;;;;4.00;2.50;;;;;;;;119460;1194;25713;-61
2023/06/13 11:10:55;;;;;;;;;4.00;4.00;;;;;;;;119446;1194;25470;-60
2023/06/13 11:13:32;;;;;;;;;4.50;3.50;;;;;;;;119431;1186;25583;-60
2023/06/13 11:16:38;;;;;;;;;7.00;3.00;;;;;;;;119421;1185;25182;-60
2023/06/13 11:19:12;;;;;;;;;5.00;4.00;;;;;;;;119410;1194;25048;-60
2023/06/13 11:22:06;;;;;;;;;3.00;3.00;;;;;;;;119434;1186;25625;-59
2023/06/13 11:24:35;;;;;;;;;4.00;2.00;;;;;;;;119426;1186;25263;-59
2023/06/13 11:27:04;;;;;;;;;3.00;3.00;;;;;;;;119408;1194;24992;-60
2023/06/13 11:29:33;;;;;;;;;5.00;3.00;;;;;;;;119408;1194;25155;-59
2023/06/13 11:32:04;;;;;;;;;5.00;4.00;;;;;;;;119393;1185;25499;-59
2023/06/13 11:34:35;;;;;;;;;3.00;3.00;;;;;;;;119414;1194;24754;-59
2023/06/13 11:37:46;;;;;;;;;3.00;3.00;;;;;;;;119412;1193;25385;-59
2023/06/13 11:40:22;;;;;;;;;4.00;3.00;;;;;;;;119354;1194;25387;-60
2023/06/13 11:42:51;;;;;;;;;4.00;4.00;;;;;;;;119378;1194;25440;-60
2023/06/13 11:45:22;;;;;;;;;7.00;4.00;;;;;;;;119400;1194;26325;-59
2023/06/13 11:47:58;;;;;;;;;4.67;4.00;;;;;;;;119449;1194;25344;-60
2023/06/13 11:50:33;;;;;;;;;6.67;2.00;;;;;;;;119395;1193;25082;-60
2023/06/13 11:53:06;;;;;;;;;7.00;4.00;;;;;;;;119396;1192;25158;-60
2023/06/13 11:55:36;;;;;;;;;3.00;3.00;;;;;;;;119412;1194;25106;-59
2023/06/13 11:58:04;;;;;;;;;4.00;4.00;;;;;;;;119402;1194;25484;-59
2023/06/13 12:00:55;;;;;;;;;6.75;4.00;;;;;;;;119422;1194;25330;-60
2023/06/13 12:03:24;;;;;;;;;5.50;4.00;;;;;;;;119411;1189;25297;-60
2023/06/13 12:05:53;;;;;;;;;4.00;4.00;;;;;;;;119388;1186;24949;-60
2023/06/13 12:08:22;;;;;;;;;3.00;3.00;;;;;;;;119405;1194;24983;-59
2023/06/13 12:10:50;;;;;;;;;6.00;3.67;;;;;;;;119394;1194;24741;-60
2023/06/13 12:13:22;;;;;;;;;5.00;4.00;;;;;;;;119505;1189;25176;-60
2023/06/13 12:15:50;;;;;;;;;3.00;3.00;;;;;;;;119414;1182;24830;-68
2023/06/13 12:18:18;;;;;;;;;7.33;5.33;;;;;;;;119432;1185;25273;-68
2023/06/13 12:20:53;;;;;;;;;5.00;5.00;;;;;;;;119400;1186;25608;-67
2023/06/13 12:23:22;;;;;;;;;3.50;3.50;;;;;;;;119384;1190;24737;-67
2023/06/13 12:25:51;;;;;;;;;6.50;4.00;;;;;;;;119404;1194;25609;-66
2023/06/13 12:28:19;;;;;;;;;5.00;3.00;;;;;;;;119428;1194;24919;-66
2023/06/13 12:30:49;;;;;;;;;3.00;3.00;;;;;;;;119428;1194;25289;-66
2023/06/13 12:33:20;;;;;;;;;5.75;3.75;;;;;;;;119542;1187;25609;-66
2023/06/13 12:35:54;;;;;;;;;4.00;4.00;;;;;;;;119417;1194;25314;-66
2023/06/13 12:38:31;;;;;;;;;5.67;4.00;;;;;;;;119407;1194;25272;-66
2023/06/13 12:40:59;;;;;;;;;3.00;2.00;;;;;;;;119338;1192;25110;-66
2023/06/13 12:43:29;;;;;;;;;4.67;4.33;;;;;;;;119393;1194;24743;-66
2023/06/13 12:45:58;;;;;;;;;8.25;5.00;;;;;;;;119439;1187;25587;-66
2023/06/13 12:48:27;;;;;;;;;4.00;3.33;;;;;;;;119405;1194;25549;-66
2023/06/13 12:50:58;;;;;;;;;5.25;4.00;;;;;;;;119417;1186;25633;-66
2023/06/13 12:53:27;;;;;;;;;3.00;3.00;;;;;;;;119445;1185;25116;-66
2023/06/13 12:55:55;;;;;;;;;4.00;4.00;;;;;;;;119437;1194;24985;-65
2023/06/13 12:58:34;;;;;;;;;4.00;4.00;;;;;;;;119437;1193;25538;-65
2023/06/13 13:01:05;;;;;;;;;4.00;2.00;;;;;;;;119419;1194;25031;-66
2023/06/13 13:03:35;;;;;;;;;5.00;3.00;;;;;;;;119405;1184;25823;-66
2023/06/13 13:06:04;;;;;;;;;7.00;6.00;;;;;;;;119390;1194;25544;-66
2023/06/13 13:08:34;;;;;;;;;4.67;3.00;;;;;;;;119371;1194;25079;-66
2023/06/13 13:11:03;;;;;;;;;5.50;4.00;;;;;;;;119434;1185;24991;-67
2023/06/13 13:13:31;;;;;;;;;3.00;3.00;;;;;;;;119406;1186;25598;-65
2023/06/13 13:16:00;;;;;;;;;4.00;4.00;;;;;;;;119433;1190;25448;-71
2023/06/13 13:18:28;;;;;;;;;4.00;3.67;;;;;;;;119406;1186;25321;-73
2023/06/13 13:20:57;;;;;;;;;4.00;4.00;;;;;;;;119394;1190;25258;-71
2023/06/13 13:23:25;;;;;;;;;4.00;4.00;;;;;;;;119408;1190;25449;-71
2023/06/13 13:25:53;;;;;;;;;4.00;3.00;;;;;;;;119389;1186;25141;-72
2023/06/13 13:28:22;;;;;;;;;6.50;5.00;;;;;;;;119424;1190;24903;-72
2023/06/13 13:30:50;;;;;;;;;7.00;6.00;;;;;;;;119375;1194;25628;-73
2023/06/13 13:33:28;;;;;;;;;2.50;2.50;;;;;;;;119426;1189;25590;-72
2023/06/13 13:35:57;;;;;;;;;5.67;4.00;;;;;;;;119428;1194;24713;-71
2023/06/13 13:38:25;;;;;;;;;2.67;1.67;;;;;;;;119524;1189;25464;-72
2023/06/13 13:40:54;;;;;;;;;4.50;4.00;;;;;;;;119431;1189;24869;-71
2023/06/13 13:43:22;;;;;;;;;7.00;4.00;;;;;;;;119496;1189;25109;-70
2023/06/13 13:45:50;;;;;;;;;4.00;4.00;;;;;;;;119414;1194;25199;-70
2023/06/13 13:48:19;;;;;;;;;4.00;4.00;;;;;;;;119425;1194;25022;-71
2023/06/13 13:50:48;;;;;;;;;5.00;5.00;;;;;;;;119490;1182;25557;-70
2023/06/13 13:53:17;;;;;;;;;4.00;4.00;;;;;;;;119405;1190;25298;-66
2023/06/13 13:55:46;;;;;;;;;6.50;5.00;;;;;;;;119413;1194;25575;-65
2023/06/13 13:58:16;;;;;;;;;4.00;3.00;;;;;;;;119391;1194;25406;-65
2023/06/13 14:00:46;;;;;;;;;4.00;3.00;;;;;;;;119413;1194;25213;-65
2023/06/13 14:03:14;;;;;;;;;5.00;5.00;;;;;;;;119335;1190;25138;-65
2023/06/13 14:05:43;;;;;;;;;3.00;3.00;;;;;;;;119517;1189;25429;-65
2023/06/13 14:08:11;;;;;;;;;3.33;3.33;;;;;;;;119412;1185;25631;-65
2023/06/13 14:10:40;;;;;;;;;3.00;2.00;;;;;;;;119476;1190;25084;-65
2023/06/13 14:13:08;;;;;;;;;2.00;2.00;;;;;;;;119478;1182;25973;-67
2023/06/13 14:15:36;;;;;;;;;2.67;2.67;;;;;;;;119400;1190;24976;-67
2023/06/13 14:18:05;;;;;;;;;4.67;3.00;;;;;;;;119496;1190;25033;-66
2023/06/13 14:20:33;;;;;;;;;4.00;3.00;;;;;;;;119416;1186;25321;-66
2023/06/13 14:23:02;;;;;;;;;3.00;3.00;;;;;;;;119420;1186;25299;-66
2023/06/13 14:25:30;;;;;;;;;3.00;3.00;;;;;;;;119447;1190;25535;-66
2023/06/13 14:27:58;;;;;;;;;2.75;2.75;;;;;;;;119488;1189;25895;-66
2023/06/13 14:30:27;;;;;;;;;3.00;3.00;;;;;;;;119407;1194;24705;-67
2023/06/13 14:32:56;;;;;;;;;3.00;3.00;;;;;;;;119392;1194;25136;-67
2023/06/13 14:35:24;;;;;;;;;3.00;3.00;;;;;;;;119415;1194;25147;-67
2023/06/13 14:37:52;;;;;;;;;4.00;2.00;;;;;;;;119399;1186;25449;-59
2023/06/13 14:40:21;;;;;;;;;6.00;5.00;;;;;;;;119413;1194;24806;-59
2023/06/13 14:42:50;;;;;;;;;3.00;3.00;;;;;;;;119416;1194;26051;-58
2023/06/13 14:45:18;;;;;;;;;4.33;2.67;;;;;;;;119404;1185;25454;-59
2023/06/13 14:47:47;;;;;;;;;2.00;2.00;;;;;;;;119426;1194;25429;-60
2023/06/13 14:50:16;;;;;;;;;4.00;4.00;;;;;;;;119401;1194;25122;-59
2023/06/13 14:52:45;;;;;;;;;2.00;2.00;;;;;;;;119399;1192;25035;-58
2023/06/13 14:55:13;;;;;;;;;3.00;3.00;;;;;;;;119417;1194;24861;-59
2023/06/13 14:57:42;;;;;;;;;3.00;3.00;;;;;;;;119405;1194;25154;-60
2023/06/13 15:00:11;;;;;;;;;4.33;4.33;;;;;;;;119402;1194;25721;-61